Aérodrome :
LOGIN :

S'inscrire | Disclaimer

   EN    FR    IT 

 










Légende :    VFR   VFR Marginal   IFR   IFR Intensif   IFR Très Intensif
Visi : 
Plafond : 
>= 8 km
>= 3000ft
5 à 8 km
1000 à 3000 ft
1500m à 5 km
500 à 1000 ft
800 à 1500m
200 à 500 ft
< 800m
< 200 ft
Symboles :   Orages  Brouillard  Fortes neiges  Fortes précipitations  Vent > 20 kt
SIGMETs :   Divers  Orages  Givrage  Turbulence  Onde Orograph.  Cendres Volcan.







- Altitude de l'aérodrome : 202 ft
- Code IATA : LGW
- Voir les cartes d'approche


EGKK - London Gatwick

DERNIER METAR :
  • 142150Z 11002KT 2500 BR FEW002 BKN024 09/09 Q1021

METARs EXPIRÉS :
  • 142120Z 12002KT 1900 BR MIFG SCT002 07/07 Q1021
  • 142050Z VRB01KT 5000 BR FEW004 08/08 Q1021
  • 142020Z VRB02KT 5000 BR FEW005 08/08 Q1021
  • 141950Z 09003KT 7000 MIFG FEW006 08/08 Q1021
  • 141920Z 10003KT 8000 MIFG SCT006 08/08 Q1021

TAF AMD TAF EGKK
Valide du 14 à 21h jusqu'au 16 à 00h UTC


142117Z 1421/1524 14005KT 8000 FEW020
TEMPO 1421/1511 3000 BR BKN003
BECMG 1511/1514 BKN007
PROB30 1511/1514 9999
PROB40
TEMPO 1514/1518 3000 BR BKN004
TEMPO 1518/1524 2000 BR BKN003
PROB30
TEMPO 1521/1524 1200 BKN001
Pas de NOTAMs connus pour ce terrain.
1 SIGMET publié pour la FIR London (EGTT) :
 
Onde orographique forte
EGTT SIGMET 06 VALID 141930/142330 EGRR
EGTT LONDON FIR SEV MTW FCST N OF LINE N5206 W00557 - N5333 E00342 FL020/320 MOV N 10KT WKN=



MET'MAP, la Météo Aéronautique d'un coup d'oeil ! - Copyright ORBIFLY Décembre 2007 - Disclaimer

ORBIFLY MET'MAP TEAM :

Programmation & Développement : Alexandra Zaïnal
Conception & Développement : Baudouin d'Aumeries
Co-Programmation & Développement : Marc-Olivier Méhu
Soutien technique & logistique : Manuel Goepfert

Contact : metmap@orbifly.com




SOURCES & CREDITS :

   NOAA